createdAt,value
2018-04-16T00:00:48.554Z,79.00
2018-04-16T00:03:14.921Z,78.80
2018-04-16T00:05:43.662Z,78.70
2018-04-16T00:08:10.394Z,79.10
2018-04-16T00:10:37.337Z,78.30
2018-04-16T00:13:04.621Z,79.00
2018-04-16T00:15:31.415Z,79.50
2018-04-16T00:17:57.753Z,79.60
2018-04-16T00:20:24.290Z,79.90
2018-04-16T00:22:50.646Z,79.90
2018-04-16T00:25:17.042Z,79.50
2018-04-16T00:27:43.436Z,79.50
2018-04-16T00:30:09.734Z,80.20
2018-04-16T00:32:42.166Z,78.60
2018-04-16T00:35:14.384Z,79.40
2018-04-16T00:37:46.688Z,79.10
2018-04-16T00:40:18.868Z,80.00
2018-04-16T00:42:51.298Z,79.70
2018-04-16T00:45:23.997Z,79.40
2018-04-16T00:47:56.532Z,79.30
2018-04-16T00:50:29.145Z,78.80
2018-04-16T00:53:01.718Z,79.10
2018-04-16T00:55:34.203Z,79.40
2018-04-16T00:58:06.815Z,79.60
2018-04-16T01:00:39.539Z,79.40
2018-04-16T01:03:12.762Z,79.30
2018-04-16T01:05:44.992Z,79.30
2018-04-16T01:08:18.700Z,79.30
2018-04-16T01:10:51.019Z,79.10
2018-04-16T01:13:23.290Z,79.10
2018-04-16T01:15:55.551Z,79.20
2018-04-16T01:18:40.614Z,79.00
2018-04-16T01:21:15.949Z,79.20
2018-04-16T01:23:48.475Z,79.60
2018-04-16T01:26:20.941Z,79.40
2018-04-16T01:28:53.346Z,79.40
2018-04-16T01:31:26.551Z,79.20
2018-04-16T01:33:58.867Z,79.30
2018-04-16T01:36:31.171Z,79.00
2018-04-16T01:39:03.513Z,79.50
2018-04-16T01:41:35.779Z,79.80
2018-04-16T01:44:08.204Z,79.70
2018-04-16T01:46:40.736Z,80.00
2018-04-16T01:51:51.703Z,80.60
2018-04-16T01:54:24.281Z,80.80
2018-04-16T01:56:56.857Z,80.90
2018-04-16T01:59:29.483Z,81.00
2018-04-16T02:02:02.034Z,81.00
2018-04-16T02:07:47.033Z,80.70
2018-04-16T02:10:19.446Z,81.00
2018-04-16T02:12:52.463Z,80.80
2018-04-16T02:15:24.879Z,80.70
2018-04-16T02:17:57.251Z,80.90
2018-04-16T02:20:29.656Z,80.60
2018-04-16T02:23:01.973Z,80.60
2018-04-16T02:25:34.606Z,80.60
2018-04-16T02:28:06.976Z,80.60
2018-04-16T02:30:39.523Z,80.60
2018-04-16T02:33:11.804Z,80.50
2018-04-16T02:35:44.376Z,81.30
2018-04-16T02:38:17.052Z,80.60
2018-04-16T02:40:49.364Z,80.20
2018-04-16T02:43:21.831Z,80.40
2018-04-16T02:45:54.468Z,80.80
2018-04-16T02:48:26.770Z,80.40
2018-04-16T02:50:59.123Z,80.40
2018-04-16T02:53:31.300Z,80.50
2018-04-16T02:56:03.720Z,80.30
2018-04-16T02:58:36.675Z,81.10
2018-04-16T03:01:09.089Z,80.30
2018-04-16T03:03:41.419Z,80.20
2018-04-16T03:06:13.612Z,80.80
2018-04-16T03:08:45.939Z,79.90
2018-04-16T03:11:18.320Z,79.40
2018-04-16T03:13:50.715Z,80.20
2018-04-16T03:16:23.056Z,79.60
2018-04-16T03:19:00.684Z,80.10
2018-04-16T03:21:33.050Z,80.10
2018-04-16T03:24:05.441Z,80.30
2018-04-16T03:26:38.158Z,80.10
2018-04-16T03:29:10.666Z,80.00
2018-04-16T03:31:43.521Z,80.00
2018-04-16T03:34:16.160Z,80.10
2018-04-16T03:36:48.828Z,80.40
2018-04-16T03:39:22.467Z,80.70
2018-04-16T03:41:57.168Z,80.90
2018-04-16T03:44:30.221Z,81.10
2018-04-16T03:47:04.316Z,81.00
2018-04-16T03:49:44.356Z,80.90
2018-04-16T03:52:16.983Z,81.00
2018-04-16T03:54:47.364Z,80.80
2018-04-16T03:57:13.763Z,81.30
2018-04-16T03:59:43.263Z,81.00
2018-04-16T04:02:12.092Z,81.00
2018-04-16T04:04:39.273Z,81.30
2018-04-16T04:07:08.176Z,81.10
2018-04-16T04:12:43.226Z,80.60
2018-04-16T04:15:12.588Z,80.60
2018-04-16T04:17:42.637Z,80.80
2018-04-16T04:23:25.811Z,80.60
2018-04-16T04:26:05.830Z,80.40
2018-04-16T04:28:45.134Z,80.60
2018-04-16T04:31:12.290Z,80.10
2018-04-16T04:33:42.789Z,80.80
2018-04-16T04:36:12.430Z,80.60
2018-04-16T04:38:42.193Z,81.10
2018-04-16T04:41:14.618Z,81.00
2018-04-16T04:46:43.042Z,81.60
2018-04-16T04:49:12.725Z,81.80
2018-04-16T04:51:45.054Z,82.00
2018-04-16T04:54:26.653Z,81.90
2018-04-16T04:56:59.792Z,82.30
2018-04-16T05:05:43.912Z,81.80
2018-04-16T05:08:12.442Z,81.10
2018-04-16T05:10:42.885Z,81.10
2018-04-16T05:13:12.303Z,82.80
2018-04-16T05:21:59.601Z,82.00
2018-04-16T05:24:42.951Z,82.30
2018-04-16T05:27:09.340Z,82.40
2018-04-16T05:29:36.384Z,82.10
2018-04-16T05:32:03.405Z,82.30
2018-04-16T05:34:30.766Z,82.60
2018-04-16T05:37:00.261Z,82.10
2018-04-16T05:39:29.148Z,82.00
2018-04-16T05:41:56.276Z,82.50
2018-04-16T05:44:22.558Z,82.50
2018-04-16T05:46:48.960Z,82.90
2018-04-16T05:49:15.219Z,82.60
2018-04-16T05:51:41.549Z,82.10
2018-04-16T05:54:08.887Z,81.80
2018-04-16T05:56:35.280Z,80.90
2018-04-16T05:59:01.630Z,80.10
2018-04-16T06:01:28.061Z,80.80
2018-04-16T06:03:54.311Z,80.60
2018-04-16T06:06:20.565Z,81.20
2018-04-16T06:08:46.848Z,81.50
2018-04-16T06:11:13.120Z,81.20
2018-04-16T06:13:39.461Z,81.60
2018-04-16T06:16:05.748Z,82.50
2018-04-16T06:18:34.747Z,83.00
2018-04-16T06:21:01.023Z,82.70
2018-04-16T06:23:27.528Z,83.40
2018-04-16T06:25:54.378Z,84.10
2018-04-16T06:28:21.619Z,83.90
2018-04-16T06:30:47.930Z,83.80
2018-04-16T06:33:14.915Z,84.30
2018-04-16T06:35:41.307Z,84.30
2018-04-16T06:38:07.793Z,84.60
2018-04-16T06:40:34.224Z,84.70
2018-04-16T06:43:00.507Z,84.80
2018-04-16T06:45:26.786Z,84.40
2018-04-16T06:47:53.034Z,84.40
2018-04-16T06:50:19.370Z,84.90
2018-04-16T06:52:45.632Z,84.20
2018-04-16T06:55:12.621Z,84.10
2018-04-16T06:57:38.819Z,84.00
2018-04-16T07:00:05.080Z,83.40
2018-04-16T07:02:31.361Z,83.20
2018-04-16T07:04:57.598Z,82.90
2018-04-16T07:07:23.798Z,81.80
2018-04-16T07:09:50.025Z,81.70
2018-04-16T07:12:16.314Z,81.40
2018-04-16T07:14:42.723Z,80.50
2018-04-16T07:17:08.985Z,80.60
2018-04-16T07:19:35.271Z,80.30
2018-04-16T07:22:02.523Z,80.10
2018-04-16T07:24:28.755Z,80.20
2018-04-16T07:26:55.057Z,78.50
2018-04-16T07:29:22.006Z,77.80
2018-04-16T07:31:48.196Z,77.80
2018-04-16T07:34:15.222Z,77.30
2018-04-16T07:36:41.840Z,77.20
2018-04-16T07:39:08.082Z,75.80
2018-04-16T07:41:34.526Z,76.20
2018-04-16T07:44:00.752Z,76.20
2018-04-16T07:46:26.971Z,75.00
2018-04-16T07:48:53.203Z,74.20
2018-04-16T07:51:19.491Z,73.60
2018-04-16T07:53:45.767Z,73.10
2018-04-16T07:56:12.062Z,69.90
2018-04-16T07:58:38.388Z,68.30
2018-04-16T08:01:05.741Z,66.70
2018-04-16T08:03:32.206Z,67.40
2018-04-16T08:05:58.635Z,64.80
2018-04-16T08:08:25.045Z,65.70
2018-04-16T08:10:51.343Z,61.30
2018-04-16T08:13:17.816Z,62.50
2018-04-16T08:15:44.056Z,62.10
2018-04-16T08:18:10.299Z,60.70
2018-04-16T08:20:36.541Z,58.50
2018-04-16T08:23:02.923Z,59.20
2018-04-16T08:25:29.202Z,58.70
2018-04-16T08:27:55.540Z,59.00
2018-04-16T08:30:21.778Z,57.60
2018-04-16T08:32:48.188Z,55.10
2018-04-16T08:35:14.483Z,56.70
2018-04-16T08:37:40.763Z,55.70
2018-04-16T08:40:07.037Z,56.30
2018-04-16T08:42:33.296Z,56.00
2018-04-16T08:44:59.607Z,56.20
2018-04-16T08:47:26.704Z,54.40
2018-04-16T08:49:53.952Z,54.40
2018-04-16T08:52:21.152Z,52.60
2018-04-16T08:54:59.285Z,52.50
2018-04-16T08:57:29.584Z,52.50
2018-04-16T08:59:58.077Z,52.00
2018-04-16T09:02:29.369Z,51.50
2018-04-16T09:04:55.622Z,50.60
2018-04-16T09:07:21.879Z,51.10
2018-04-16T09:09:48.115Z,49.00
2018-04-16T09:12:14.422Z,49.50
2018-04-16T09:14:41.683Z,50.80
2018-04-16T09:17:07.930Z,49.50
2018-04-16T09:19:34.164Z,49.40
2018-04-16T09:22:00.452Z,49.30
2018-04-16T09:24:26.683Z,47.70
2018-04-16T09:26:52.943Z,47.10
2018-04-16T09:29:19.956Z,45.60
2018-04-16T09:31:46.740Z,45.50
2018-04-16T09:34:12.963Z,45.90
2018-04-16T09:36:42.370Z,46.10
2018-04-16T09:39:08.658Z,46.20
2018-04-16T09:41:35.392Z,46.50
2018-04-16T09:44:01.654Z,45.20
2018-04-16T09:46:28.644Z,43.20
2018-04-16T09:48:55.091Z,43.20
2018-04-16T09:51:21.354Z,43.90
2018-04-16T09:53:47.603Z,42.20
2018-04-16T09:56:13.862Z,43.30
2018-04-16T09:58:40.090Z,41.50
2018-04-16T10:01:12.277Z,41.90
2018-04-16T10:03:38.545Z,41.20
2018-04-16T10:06:04.945Z,40.50
2018-04-16T10:08:31.172Z,41.20
2018-04-16T10:10:57.401Z,41.10
2018-04-16T10:13:23.683Z,40.50
2018-04-16T10:15:49.917Z,40.50
2018-04-16T10:18:16.211Z,41.00
2018-04-16T10:20:43.243Z,41.40
2018-04-16T10:23:09.526Z,41.30
2018-04-16T10:25:35.766Z,41.80
2018-04-16T10:28:02.055Z,42.90
2018-04-16T10:30:28.375Z,41.00
2018-04-16T10:32:54.721Z,37.00
2018-04-16T10:35:20.987Z,38.00
2018-04-16T10:37:47.244Z,39.00
2018-04-16T10:40:13.539Z,37.00
2018-04-16T10:42:39.883Z,36.40
2018-04-16T10:45:06.154Z,36.30
2018-04-16T10:47:32.435Z,37.30
2018-04-16T10:49:58.738Z,37.90
2018-04-16T10:52:24.969Z,37.70
2018-04-16T10:54:51.221Z,37.60
2018-04-16T10:57:19.576Z,37.40
2018-04-16T10:59:45.863Z,39.60
2018-04-16T11:02:12.162Z,37.10
2018-04-16T11:04:38.428Z,32.70
2018-04-16T11:07:04.671Z,31.10
2018-04-16T11:09:30.933Z,32.80
2018-04-16T11:11:57.143Z,31.80
2018-04-16T11:14:23.504Z,29.70
2018-04-16T11:16:49.856Z,29.10
2018-04-16T11:19:16.945Z,31.30
2018-04-16T11:21:43.197Z,31.20
2018-04-16T11:24:09.896Z,28.80
2018-04-16T11:26:36.260Z,29.20
2018-04-16T11:29:02.610Z,25.40
2018-04-16T11:31:28.982Z,25.20
2018-04-16T11:33:56.378Z,24.90
2018-04-16T11:36:23.596Z,23.80
2018-04-16T11:38:50.044Z,23.80
2018-04-16T11:41:16.347Z,24.40
2018-04-16T11:43:42.619Z,23.80
2018-04-16T11:46:08.886Z,24.50
2018-04-16T11:48:35.285Z,24.60
2018-04-16T11:51:01.590Z,23.80
2018-04-16T11:53:29.252Z,23.60
2018-04-16T11:55:56.266Z,22.50
2018-04-16T11:58:22.536Z,22.40
2018-04-16T12:00:48.938Z,24.00
2018-04-16T12:03:15.195Z,24.90
2018-04-16T12:05:41.443Z,23.90
2018-04-16T12:08:07.793Z,23.20
2018-04-16T12:10:34.051Z,23.80
2018-04-16T12:13:00.293Z,23.60
2018-04-16T12:15:26.580Z,24.50
2018-04-16T12:17:52.856Z,24.30
2018-04-16T12:20:19.100Z,25.20
2018-04-16T12:22:45.395Z,24.80
2018-04-16T12:25:11.727Z,24.80
2018-04-16T12:27:38.020Z,24.30
2018-04-16T12:30:05.305Z,25.50
2018-04-16T12:32:31.600Z,25.90
2018-04-16T12:34:58.023Z,26.30
2018-04-16T12:37:24.279Z,24.80
2018-04-16T12:39:50.528Z,24.10
2018-04-16T12:42:16.774Z,25.00
2018-04-16T12:44:43.050Z,24.50
2018-04-16T12:47:09.382Z,23.90
2018-04-16T12:49:35.630Z,23.60
2018-04-16T12:52:01.882Z,23.60
2018-04-16T12:54:28.139Z,23.30
2018-04-16T12:56:54.339Z,24.20
2018-04-16T12:59:20.635Z,24.20
2018-04-16T13:01:48.385Z,24.20
2018-04-16T13:04:14.716Z,24.20
2018-04-16T13:06:40.999Z,24.20
2018-04-16T13:09:08.066Z,24.20
2018-04-16T13:11:35.043Z,24.10
2018-04-16T13:14:01.525Z,24.10
2018-04-16T13:16:28.107Z,24.10
2018-04-16T13:18:54.380Z,23.80
2018-04-16T13:21:20.672Z,24.10
2018-04-16T13:23:46.967Z,24.10
2018-04-16T13:26:13.251Z,23.90
2018-04-16T13:28:39.684Z,23.90
2018-04-16T13:31:05.942Z,24.90
2018-04-16T13:33:32.142Z,24.30
2018-04-16T13:35:58.404Z,24.90
2018-04-16T13:38:24.696Z,24.80
2018-04-16T13:40:51.797Z,24.20
2018-04-16T13:43:18.152Z,24.20
2018-04-16T13:45:44.483Z,25.00
2018-04-16T13:48:10.704Z,24.50
2018-04-16T13:50:37.046Z,23.30
2018-04-16T13:53:03.296Z,23.80
2018-04-16T13:55:29.589Z,23.90
2018-04-16T13:57:55.802Z,23.80
2018-04-16T14:00:22.050Z,24.30
2018-04-16T14:02:48.657Z,24.30
2018-04-16T14:05:14.936Z,24.80
2018-04-16T14:07:41.255Z,24.40
2018-04-16T14:10:07.657Z,24.40
2018-04-16T14:12:33.961Z,25.30
2018-04-16T14:15:01.002Z,25.00
2018-04-16T14:17:27.278Z,25.00
2018-04-16T14:19:53.535Z,24.50
2018-04-16T14:22:20.216Z,23.50
2018-04-16T14:24:46.592Z,22.70
2018-04-16T14:27:12.809Z,22.40
2018-04-16T14:29:39.796Z,23.00
2018-04-16T14:32:06.047Z,23.00
2018-04-16T14:34:32.276Z,23.50
2018-04-16T14:36:58.544Z,23.30
2018-04-16T14:39:24.773Z,24.20
2018-04-16T14:41:51.212Z,24.20
2018-04-16T14:44:17.479Z,24.10
2018-04-16T14:46:43.844Z,23.50
2018-04-16T14:49:10.062Z,23.80
2018-04-16T14:51:36.295Z,23.90
2018-04-16T14:54:02.672Z,24.00
2018-04-16T14:56:29.056Z,23.20
2018-04-16T14:58:55.395Z,22.10
2018-04-16T15:01:21.625Z,21.80
2018-04-16T15:03:48.731Z,21.90
2018-04-16T15:06:14.990Z,21.90
2018-04-16T15:08:44.935Z,22.90
2018-04-16T15:11:11.172Z,23.00
2018-04-16T15:13:42.438Z,22.60
2018-04-16T15:16:09.196Z,21.90
2018-04-16T15:18:35.546Z,22.00
2018-04-16T15:21:04.184Z,22.90
2018-04-16T15:23:30.467Z,22.90
2018-04-16T15:25:56.734Z,23.30
2018-04-16T15:28:24.525Z,23.80
2018-04-16T15:30:50.929Z,23.50
2018-04-16T15:33:17.766Z,23.50
2018-04-16T15:35:44.121Z,22.80
2018-04-16T15:38:10.421Z,22.30
2018-04-16T15:40:38.732Z,23.60
2018-04-16T15:43:05.003Z,22.10
2018-04-16T15:45:31.697Z,21.90
2018-04-16T15:47:58.421Z,21.90
2018-04-16T15:50:25.022Z,21.50
2018-04-16T15:52:51.370Z,21.40
2018-04-16T15:55:18.199Z,21.80
2018-04-16T15:57:44.518Z,21.10
2018-04-16T16:00:12.851Z,21.60
2018-04-16T16:02:39.278Z,21.10
2018-04-16T16:05:06.906Z,21.20
2018-04-16T16:07:33.188Z,20.70
2018-04-16T16:09:59.533Z,21.20
2018-04-16T16:12:25.863Z,21.20
2018-04-16T16:14:53.140Z,21.20
2018-04-16T16:17:19.415Z,21.10
2018-04-16T16:19:45.767Z,21.60
2018-04-16T16:22:12.148Z,22.60
2018-04-16T16:24:38.430Z,22.80
2018-04-16T16:27:04.732Z,22.20
2018-04-16T16:29:31.007Z,22.40
2018-04-16T16:31:57.337Z,22.50
2018-04-16T16:34:23.647Z,21.70
2018-04-16T16:36:49.947Z,21.20
2018-04-16T16:39:16.271Z,21.90
2018-04-16T16:41:42.520Z,22.40
2018-04-16T16:44:08.758Z,22.50
2018-04-16T16:46:35.018Z,22.90
2018-04-16T16:49:01.364Z,22.60
2018-04-16T16:51:27.653Z,22.30
2018-04-16T16:53:53.989Z,22.80
2018-04-16T16:56:20.973Z,22.70
2018-04-16T16:58:48.160Z,22.50
2018-04-16T17:01:14.458Z,22.50
2018-04-16T17:03:42.846Z,23.40
2018-04-16T17:06:09.326Z,22.90
2018-04-16T17:08:35.563Z,24.00
2018-04-16T17:11:01.823Z,23.80
2018-04-16T17:13:28.238Z,24.30
2018-04-16T17:15:54.628Z,23.60
2018-04-16T17:18:21.965Z,24.00
2018-04-16T17:20:48.266Z,24.10
2018-04-16T17:23:14.510Z,24.70
2018-04-16T17:25:40.767Z,25.10
2018-04-16T17:28:06.990Z,24.80
2018-04-16T17:30:33.194Z,25.40
2018-04-16T17:32:59.416Z,25.30
2018-04-16T17:35:26.461Z,26.60
2018-04-16T17:37:52.657Z,26.20
2018-04-16T17:40:18.905Z,26.50
2018-04-16T17:42:45.108Z,26.70
2018-04-16T17:45:11.501Z,27.00
2018-04-16T17:47:38.819Z,28.30
2018-04-16T17:50:05.171Z,26.70
2018-04-16T17:52:31.475Z,27.50
2018-04-16T17:54:57.760Z,29.20
2018-04-16T17:57:25.459Z,30.50
2018-04-16T17:59:55.065Z,30.40
2018-04-16T18:02:25.175Z,30.40
2018-04-16T18:04:59.768Z,30.40
2018-04-16T18:07:26.784Z,30.50
2018-04-16T18:09:53.607Z,30.50
2018-04-16T18:12:33.279Z,32.30
2018-04-16T18:15:00.559Z,32.60
2018-04-16T18:17:43.099Z,32.50
2018-04-16T18:20:10.406Z,33.20
2018-04-16T18:22:38.732Z,33.80
2018-04-16T18:25:04.938Z,35.40
2018-04-16T18:27:34.747Z,34.40
2018-04-16T18:30:01.188Z,34.80
2018-04-16T18:32:27.636Z,35.40
2018-04-16T18:34:55.117Z,36.20
2018-04-16T18:37:24.841Z,36.40
2018-04-16T18:39:55.951Z,38.70
2018-04-16T18:42:26.268Z,37.40
2018-04-16T18:44:53.132Z,37.10
2018-04-16T18:47:20.208Z,37.50
2018-04-16T18:49:46.697Z,38.70
2018-04-16T18:52:12.922Z,37.70
2018-04-16T18:54:39.287Z,37.80
2018-04-16T18:57:05.551Z,39.00
2018-04-16T18:59:43.691Z,38.80
2018-04-16T19:02:10.080Z,38.50
2018-04-16T19:04:36.313Z,38.20
2018-04-16T19:07:03.276Z,39.00
2018-04-16T19:09:29.713Z,39.00
2018-04-16T19:11:55.973Z,38.40
2018-04-16T19:14:22.234Z,37.80
2018-04-16T19:16:48.568Z,36.80
2018-04-16T19:19:14.926Z,36.20
2018-04-16T19:21:47.532Z,35.70
2018-04-16T19:24:14.729Z,35.80
2018-04-16T19:26:46.974Z,35.80
2018-04-16T19:29:13.220Z,37.40
2018-04-16T19:31:40.448Z,37.70
2018-04-16T19:34:13.641Z,37.60
2018-04-16T19:36:40.265Z,36.10
2018-04-16T19:39:07.807Z,37.10
2018-04-16T19:41:52.497Z,37.20
2018-04-16T19:44:18.822Z,37.20
2018-04-16T19:46:45.071Z,38.60
2018-04-16T19:49:18.124Z,37.10
2018-04-16T19:51:44.355Z,37.10
2018-04-16T19:54:10.532Z,37.30
2018-04-16T19:56:42.831Z,37.00
2018-04-16T19:59:09.150Z,37.00
2018-04-16T20:01:35.371Z,39.00
2018-04-16T20:04:01.806Z,38.60
2018-04-16T20:06:28.031Z,40.80
2018-04-16T20:08:54.272Z,39.90
2018-04-16T20:11:20.471Z,39.80
2018-04-16T20:13:50.257Z,41.90
2018-04-16T20:16:16.519Z,40.80
2018-04-16T20:18:43.031Z,41.50
2018-04-16T20:21:10.950Z,41.90
2018-04-16T20:23:37.237Z,42.10
2018-04-16T20:26:04.319Z,42.90
2018-04-16T20:28:30.507Z,42.80
2018-04-16T20:30:56.741Z,42.20
2018-04-16T20:33:22.987Z,42.90
2018-04-16T20:35:49.282Z,42.90
2018-04-16T20:38:16.568Z,43.90
2018-04-16T20:40:43.569Z,43.90
2018-04-16T20:43:09.747Z,43.80
2018-04-16T20:45:35.959Z,43.90
2018-04-16T20:48:02.131Z,44.00
2018-04-16T20:50:28.368Z,44.70
2018-04-16T20:52:54.620Z,44.90
2018-04-16T20:55:20.867Z,44.20
2018-04-16T20:57:47.128Z,45.30
2018-04-16T21:00:13.489Z,44.00
2018-04-16T21:02:40.816Z,45.30
2018-04-16T21:05:07.020Z,44.80
2018-04-16T21:07:33.214Z,45.10
2018-04-16T21:09:59.427Z,45.80
2018-04-16T21:12:25.623Z,45.60
2018-04-16T21:14:52.531Z,46.30
2018-04-16T21:17:18.774Z,46.30
2018-04-16T21:19:47.112Z,46.50
2018-04-16T21:22:13.371Z,47.00
2018-04-16T21:24:39.845Z,47.00
2018-04-16T21:27:06.212Z,46.90
2018-04-16T21:29:33.678Z,46.90
2018-04-16T21:31:59.920Z,46.80
2018-04-16T21:34:26.149Z,45.70
2018-04-16T21:36:52.406Z,45.50
2018-04-16T21:39:18.682Z,46.80
2018-04-16T21:41:45.019Z,46.80
2018-04-16T21:44:11.262Z,46.70
2018-04-16T21:46:37.502Z,44.80
2018-04-16T21:49:03.712Z,43.00
2018-04-16T21:51:29.915Z,44.00
2018-04-16T21:53:56.210Z,45.50
2018-04-16T21:56:22.426Z,43.80
2018-04-16T21:58:48.646Z,45.20
2018-04-16T22:01:14.862Z,44.50
2018-04-16T22:03:41.080Z,44.00
2018-04-16T22:06:07.270Z,43.60
2018-04-16T22:08:33.466Z,44.60
2018-04-16T22:11:00.404Z,46.40
2018-04-16T22:13:26.631Z,44.20
2018-04-16T22:15:52.877Z,45.60
2018-04-16T22:18:19.118Z,42.90
2018-04-16T22:20:45.536Z,44.00
2018-04-16T22:23:12.543Z,43.50
2018-04-16T22:25:40.297Z,45.90
2018-04-16T22:28:06.837Z,45.90
2018-04-16T22:30:33.164Z,42.80
2018-04-16T22:32:59.420Z,42.50
2018-04-16T22:35:26.397Z,42.50
2018-04-16T22:37:52.733Z,42.50
2018-04-16T22:40:18.982Z,43.20
2018-04-16T22:42:45.198Z,43.10
2018-04-16T22:45:11.400Z,43.90
2018-04-16T22:47:37.671Z,43.70
2018-04-16T22:50:03.935Z,45.70
2018-04-16T22:52:30.279Z,45.20
2018-04-16T22:54:56.505Z,46.60
2018-04-16T22:57:22.752Z,46.50
2018-04-16T22:59:48.967Z,46.40
2018-04-16T23:02:15.209Z,46.80
2018-04-16T23:04:42.328Z,48.10
2018-04-16T23:07:08.696Z,48.20
2018-04-16T23:09:34.955Z,47.90
2018-04-16T23:12:01.947Z,48.50
2018-04-16T23:14:28.180Z,48.40
2018-04-16T23:16:54.410Z,48.90
2018-04-16T23:19:20.811Z,48.70
2018-04-16T23:21:47.836Z,48.50
2018-04-16T23:24:14.276Z,48.40
2018-04-16T23:26:40.558Z,48.40
2018-04-16T23:29:06.887Z,47.20
2018-04-16T23:31:33.948Z,48.10
2018-04-16T23:34:01.295Z,49.80
2018-04-16T23:36:27.662Z,49.70
2018-04-16T23:38:53.891Z,49.60
2018-04-16T23:41:20.208Z,50.70
2018-04-16T23:43:46.457Z,51.50
2018-04-16T23:46:12.698Z,51.20
2018-04-16T23:48:38.908Z,51.80
2018-04-16T23:51:05.933Z,51.90
2018-04-16T23:53:32.163Z,51.80
2018-04-16T23:55:58.392Z,51.90
2018-04-16T23:58:24.705Z,52.20
